Time;durP1;ratioP1;P1;durP2;ratioP2;P2;SDS_P1;SDS_P2;PMS_P1;PMS_P2;Temp;Humidity;BMP_temperature;BMP_pressure;BME280_temperature;BME280_humidity;BME280_pressure;Samples;Min_cycle;Max_cycle;Signal;HPM_P1;HPM_P2
2023/06/25 00:01:02;;;;;;;6.32;5.72;;;21.10;99.90;;;;;;4822322;29;20041;-69
2023/06/25 00:03:28;;;;;;;7.68;5.78;;;21.00;99.90;;;;;;4837869;29;20041;-70
2023/06/25 00:05:54;;;;;;;5.45;4.47;;;21.00;99.90;;;;;;4839818;29;20037;-69
2023/06/25 00:08:21;;;;;;;6.68;6.05;;;21.00;99.90;;;;;;4837722;29;20064;-69
2023/06/25 00:10:47;;;;;;;6.20;5.60;;;21.00;99.90;;;;;;4815952;29;20025;-69
2023/06/25 00:13:13;;;;;;;6.82;6.10;;;20.90;99.90;;;;;;4841854;29;20044;-69
2023/06/25 00:15:40;;;;;;;5.32;4.82;;;20.90;99.90;;;;;;4848408;29;20591;-70
2023/06/25 00:18:08;;;;;;;5.80;4.82;;;20.90;99.90;;;;;;4847383;29;20524;-69
2023/06/25 00:20:34;;;;;;;6.03;5.43;;;20.90;99.90;;;;;;4833384;29;20049;-69
2023/06/25 00:23:01;;;;;;;6.10;5.50;;;20.80;99.90;;;;;;4835470;29;20052;-69
2023/06/25 00:25:27;;;;;;;6.43;5.38;;;20.80;99.90;;;;;;4838423;29;20044;-69
2023/06/25 00:27:57;;;;;;;5.97;5.38;;;20.80;99.90;;;;;;4838338;29;22376;-69
2023/06/25 00:30:25;;;;;;;7.95;6.30;;;20.70;99.90;;;;;;4827957;29;20045;-69
2023/06/25 00:32:54;;;;;;;6.38;5.47;;;20.80;99.90;;;;;;4844739;29;20490;-69
2023/06/25 00:35:24;;;;;;;5.40;4.90;;;20.70;99.90;;;;;;4847329;29;20407;-69
2023/06/25 00:38:00;;;;;;;5.90;5.22;;;20.70;99.90;;;;;;4842755;29;20052;-69
2023/06/25 00:40:26;;;;;;;5.40;4.90;;;20.60;99.90;;;;;;4829396;29;20044;-69
2023/06/25 00:43:00;;;;;;;5.30;4.80;;;20.60;99.90;;;;;;4836030;29;20476;-69
2023/06/25 00:45:26;;;;;;;6.07;5.47;;;20.60;99.90;;;;;;4836104;29;20037;-69
2023/06/25 00:47:53;;;;;;;8.02;5.72;;;20.60;99.90;;;;;;4836228;29;20048;-69
2023/06/25 00:50:25;;;;;;;6.60;5.25;;;20.50;99.90;;;;;;4834036;29;20040;-69
2023/06/25 00:52:52;;;;;;;5.57;5.07;;;20.50;99.90;;;;;;4816970;29;20547;-69
2023/06/25 00:55:19;;;;;;;6.32;5.30;;;20.50;99.90;;;;;;4846394;29;20041;-69
2023/06/25 00:57:46;;;;;;;6.43;5.57;;;20.40;99.90;;;;;;4837835;29;20044;-69
2023/06/25 01:00:14;;;;;;;7.60;6.75;;;20.40;99.90;;;;;;4813768;29;20061;-69
2023/06/25 01:03:04;;;;;;;7.35;6.60;;;20.40;99.90;;;;;;4836869;29;20033;-69
2023/06/25 01:05:39;;;;;;;7.38;6.28;;;20.40;99.90;;;;;;4838822;29;20052;-69
2023/06/25 01:08:10;;;;;;;8.32;6.40;;;20.40;99.90;;;;;;4805796;29;20044;-69
2023/06/25 01:10:40;;;;;;;9.13;7.37;;;20.40;99.90;;;;;;4839467;29;20041;-70
2023/06/25 01:13:07;;;;;;;10.32;8.95;;;20.30;99.90;;;;;;4847433;29;20024;-69
2023/06/25 01:15:33;;;;;;;7.07;6.20;;;20.30;99.90;;;;;;4841687;29;20048;-69
2023/06/25 01:18:00;;;;;;;6.30;5.70;;;20.30;99.90;;;;;;4835165;29;20052;-68
2023/06/25 01:20:27;;;;;;;6.93;5.45;;;20.30;99.90;;;;;;4826976;29;20053;-69
2023/06/25 01:22:58;;;;;;;7.00;6.03;;;20.30;99.90;;;;;;4835842;29;20037;-69
2023/06/25 01:25:25;;;;;;;7.07;6.38;;;20.30;99.90;;;;;;4838788;29;20033;-69
2023/06/25 01:27:51;;;;;;;8.75;6.80;;;20.30;99.90;;;;;;4836781;29;20059;-69
2023/06/25 01:30:20;;;;;;;6.70;6.07;;;20.30;99.90;;;;;;4833174;29;20057;-69
2023/06/25 01:32:46;;;;;;;7.60;6.65;;;20.20;99.90;;;;;;4845797;29;20039;-69
2023/06/25 01:35:15;;;;;;;6.85;6.20;;;20.20;99.90;;;;;;4827745;29;20033;-68
2023/06/25 01:37:41;;;;;;;7.43;6.72;;;20.20;99.90;;;;;;4820082;29;20045;-69
2023/06/25 01:40:08;;;;;;;6.95;6.25;;;20.20;99.90;;;;;;4824626;29;21428;-69
2023/06/25 01:42:35;;;;;;;7.05;6.35;;;20.10;99.90;;;;;;4818769;29;20052;-69
2023/06/25 01:45:02;;;;;;;6.57;5.70;;;20.10;99.90;;;;;;4836668;29;20041;-69
2023/06/25 01:47:31;;;;;;;6.80;5.28;;;20.10;99.90;;;;;;4821235;29;20041;-68
2023/06/25 01:49:57;;;;;;;6.55;5.85;;;20.10;99.90;;;;;;4838254;29;20040;-69
2023/06/25 01:52:23;;;;;;;5.35;4.85;;;20.10;99.90;;;;;;4846872;29;20064;-69
2023/06/25 01:54:50;;;;;;;8.18;6.90;;;20.00;99.90;;;;;;4836386;29;20461;-69
2023/06/25 01:57:16;;;;;;;6.55;5.32;;;20.00;99.90;;;;;;4834861;29;20068;-69
2023/06/25 01:59:42;;;;;;;7.63;6.53;;;19.90;99.90;;;;;;4812406;29;20037;-66
2023/06/25 02:02:09;;;;;;;7.68;6.18;;;19.90;99.90;;;;;;4836565;29;20618;-69
2023/06/25 02:04:35;;;;;;;9.52;7.00;;;19.90;99.90;;;;;;4835973;29;20033;-70
2023/06/25 02:07:02;;;;;;;8.75;6.88;;;19.90;99.90;;;;;;4828898;29;20049;-69
2023/06/25 02:09:28;;;;;;;7.15;6.32;;;19.90;99.90;;;;;;4839515;29;20507;-69
2023/06/25 02:11:54;;;;;;;6.13;5.53;;;19.90;99.90;;;;;;4839912;29;20384;-69
2023/06/25 02:14:21;;;;;;;6.43;5.82;;;19.80;99.90;;;;;;4836851;29;20380;-69
2023/06/25 02:16:47;;;;;;;8.75;7.85;;;19.80;99.90;;;;;;4835426;29;20492;-69
2023/06/25 02:19:13;;;;;;;6.07;5.45;;;19.80;99.90;;;;;;4828860;29;20045;-69
2023/06/25 02:21:40;;;;;;;7.70;5.47;;;19.80;99.90;;;;;;4833854;29;20388;-69
2023/06/25 02:24:06;;;;;;;8.25;7.35;;;19.70;99.90;;;;;;4836407;29;20476;-69
2023/06/25 02:26:33;;;;;;;5.63;5.03;;;19.70;99.90;;;;;;4844452;29;20056;-69
2023/06/25 02:28:59;;;;;;;5.75;5.15;;;19.60;99.90;;;;;;4811470;29;20041;-69
2023/06/25 02:31:26;;;;;;;5.82;5.32;;;19.70;99.90;;;;;;4840092;29;20034;-69
2023/06/25 02:33:52;;;;;;;6.13;4.95;;;19.60;99.90;;;;;;4819441;29;20048;-69
2023/06/25 02:36:19;;;;;;;6.85;6.07;;;19.60;99.90;;;;;;4836643;29;20159;-69
2023/06/25 02:38:45;;;;;;;8.95;6.05;;;19.60;99.90;;;;;;4831825;29;20041;-69
2023/06/25 02:41:12;;;;;;;6.28;5.68;;;19.50;99.90;;;;;;4829450;29;20049;-69
2023/06/25 02:43:39;;;;;;;6.05;5.50;;;19.50;99.90;;;;;;4853591;29;20021;-68
2023/06/25 02:46:05;;;;;;;6.82;6.22;;;19.40;99.90;;;;;;4842229;29;20049;-69
2023/06/25 02:48:31;;;;;;;6.72;6.03;;;19.40;99.90;;;;;;4842646;29;20412;-69
2023/06/25 02:50:58;;;;;;;5.95;5.35;;;19.40;99.90;;;;;;4834339;29;20440;-69
2023/06/25 02:53:24;;;;;;;8.48;6.80;;;19.40;99.90;;;;;;4820188;29;20037;-69
2023/06/25 02:55:51;;;;;;;6.72;6.05;;;19.30;99.90;;;;;;4834949;29;20433;-69
2023/06/25 02:58:17;;;;;;;7.05;6.35;;;19.30;99.90;;;;;;4834690;29;20047;-69
2023/06/25 03:00:43;;;;;;;6.68;5.85;;;19.30;99.90;;;;;;4828127;29;20044;-68
2023/06/25 03:03:10;;;;;;;7.53;5.90;;;19.30;99.90;;;;;;4834494;29;20052;-69
2023/06/25 03:05:36;;;;;;;6.90;5.85;;;19.30;99.90;;;;;;4829212;29;20047;-69
2023/06/25 03:08:03;;;;;;;6.10;5.57;;;19.20;99.90;;;;;;4844331;29;20603;-68
2023/06/25 03:10:33;;;;;;;6.15;5.55;;;19.20;99.90;;;;;;4828973;29;20397;-69
2023/06/25 03:12:59;;;;;;;6.63;5.50;;;19.20;99.90;;;;;;4817307;29;20238;-69
2023/06/25 03:15:26;;;;;;;7.90;7.20;;;19.20;99.90;;;;;;4834915;29;20048;-69
2023/06/25 03:17:52;;;;;;;7.45;6.65;;;19.10;99.90;;;;;;4833479;29;20540;-69
2023/06/25 03:20:20;;;;;;;6.53;5.93;;;19.10;99.90;;;;;;4841379;29;20864;-69
2023/06/25 03:22:47;;;;;;;7.47;6.38;;;19.10;99.90;;;;;;4841411;29;20041;-68
2023/06/25 03:25:14;;;;;;;6.93;6.22;;;19.10;99.90;;;;;;4845206;29;20033;-68
2023/06/25 03:27:45;;;;;;;7.43;6.65;;;19.10;99.90;;;;;;4838689;29;20036;-69
2023/06/25 03:30:12;;;;;;;7.75;6.95;;;19.00;99.90;;;;;;4824979;29;20535;-69
2023/06/25 03:32:38;;;;;;;6.90;5.65;;;19.00;99.90;;;;;;4832675;29;20037;-69
2023/06/25 03:35:05;;;;;;;5.32;4.82;;;19.00;99.90;;;;;;4833877;29;20041;-69
2023/06/25 03:37:33;;;;;;;5.88;5.32;;;19.00;99.90;;;;;;4833265;29;20025;-69
2023/06/25 03:39:59;;;;;;;5.40;4.90;;;19.00;99.90;;;;;;4812605;29;20256;-68
2023/06/25 03:42:26;;;;;;;5.30;4.80;;;19.00;99.90;;;;;;4843535;29;20033;-69
2023/06/25 03:44:53;;;;;;;6.78;6.13;;;18.90;99.90;;;;;;4844813;29;20036;-69
2023/06/25 03:47:23;;;;;;;6.30;5.70;;;18.90;99.90;;;;;;4818727;29;20049;-69
2023/06/25 03:49:50;;;;;;;6.32;5.68;;;18.90;99.90;;;;;;4825872;29;20480;-69
2023/06/25 03:52:17;;;;;;;6.38;5.60;;;18.90;99.90;;;;;;4833912;29;20037;-69
2023/06/25 03:54:43;;;;;;;6.28;5.60;;;18.90;99.90;;;;;;4834836;29;20418;-69
2023/06/25 03:57:10;;;;;;;6.85;6.15;;;19.00;99.90;;;;;;4833380;29;20076;-69
2023/06/25 03:59:36;;;;;;;6.40;5.03;;;19.00;99.90;;;;;;4829256;29;20045;-69
2023/06/25 04:02:05;;;;;;;6.20;5.60;;;19.00;99.90;;;;;;4845095;29;20040;-69
2023/06/25 04:04:31;;;;;;;6.60;5.90;;;19.00;99.90;;;;;;4827215;29;20049;-69
2023/06/25 04:06:58;;;;;;;6.78;6.10;;;19.00;99.90;;;;;;4833371;29;20033;-69
2023/06/25 04:09:24;;;;;;;7.40;6.70;;;19.10;99.90;;;;;;4812970;29;20048;-69
2023/06/25 04:11:51;;;;;;;7.47;6.57;;;19.10;99.90;;;;;;4831927;29;20055;-69
2023/06/25 04:14:17;;;;;;;6.13;5.47;;;19.10;99.90;;;;;;4821805;29;20063;-69
2023/06/25 04:16:44;;;;;;;6.90;6.20;;;19.20;99.90;;;;;;4821454;29;20029;-69
2023/06/25 04:19:11;;;;;;;6.03;5.43;;;19.20;99.90;;;;;;4842780;29;20032;-68
2023/06/25 04:21:38;;;;;;;6.22;5.22;;;19.30;99.90;;;;;;4845306;29;20048;-68
2023/06/25 04:24:04;;;;;;;8.90;8.00;;;19.30;99.90;;;;;;4812790;29;20045;-68
2023/06/25 04:26:31;;;;;;;8.88;7.97;;;19.40;99.90;;;;;;4821527;29;20051;-69
2023/06/25 04:28:58;;;;;;;8.73;7.82;;;19.50;99.90;;;;;;4802554;29;20038;-69
2023/06/25 04:31:24;;;;;;;9.85;8.85;;;19.50;99.90;;;;;;4831664;29;20045;-69
2023/06/25 04:33:52;;;;;;;9.05;7.72;;;19.60;99.90;;;;;;4839543;29;20175;-69
2023/06/25 04:36:19;;;;;;;9.18;7.72;;;19.80;99.90;;;;;;4838318;29;20040;-69
2023/06/25 04:38:50;;;;;;;8.45;6.35;;;19.80;99.90;;;;;;4829080;29;20087;-69
2023/06/25 04:41:17;;;;;;;10.73;8.20;;;19.90;99.90;;;;;;4841801;29;20033;-68
2023/06/25 04:43:43;;;;;;;9.43;8.40;;;20.00;99.90;;;;;;4824371;29;20045;-68
2023/06/25 04:46:10;;;;;;;7.53;6.82;;;20.20;99.90;;;;;;4822374;29;20405;-69
2023/06/25 04:48:37;;;;;;;6.72;6.13;;;20.20;99.90;;;;;;4835154;29;20041;-68
2023/06/25 04:51:04;;;;;;;7.55;6.85;;;20.40;99.90;;;;;;4831886;29;20093;-69
2023/06/25 04:53:30;;;;;;;7.28;6.57;;;20.50;99.90;;;;;;4838061;29;20497;-69
2023/06/25 04:55:57;;;;;;;8.82;7.28;;;20.70;99.90;;;;;;4840034;29;20048;-69
2023/06/25 04:58:23;;;;;;;10.23;9.13;;;20.80;99.90;;;;;;4846615;29;20029;-69
2023/06/25 05:00:49;;;;;;;8.45;7.40;;;20.90;99.90;;;;;;4839447;29;20041;-68
2023/06/25 05:03:16;;;;;;;11.70;9.73;;;21.00;99.90;;;;;;4839258;29;20033;-68
2023/06/25 05:05:42;;;;;;;7.60;6.78;;;21.20;99.90;;;;;;4837260;29;20037;-68
2023/06/25 05:08:08;;;;;;;10.80;8.70;;;21.30;99.90;;;;;;4835308;29;20036;-68
2023/06/25 05:10:35;;;;;;;7.40;6.72;;;21.40;99.90;;;;;;4829361;29;20041;-69
2023/06/25 05:13:02;;;;;;;7.30;6.30;;;21.50;99.90;;;;;;4837367;29;23345;-68
2023/06/25 05:15:29;;;;;;;6.43;5.82;;;21.60;99.90;;;;;;4846264;29;20033;-69
2023/06/25 05:17:55;;;;;;;6.72;6.13;;;21.80;99.90;;;;;;4831062;29;20037;-69
2023/06/25 05:20:21;;;;;;;8.35;7.13;;;21.90;99.90;;;;;;4832466;29;20045;-69
2023/06/25 05:22:48;;;;;;;10.77;8.88;;;22.10;99.90;;;;;;4837695;29;20028;-68
2023/06/25 05:25:14;;;;;;;7.75;7.03;;;22.20;99.90;;;;;;4835039;29;20041;-69
2023/06/25 05:27:40;;;;;;;10.77;9.68;;;22.20;99.90;;;;;;4822452;29;20036;-71
2023/06/25 05:30:07;;;;;;;7.93;7.00;;;22.40;99.90;;;;;;4829508;29;20044;-69
2023/06/25 05:32:33;;;;;;;10.55;7.95;;;22.50;99.90;;;;;;4841575;29;20024;-68
2023/06/25 05:35:00;;;;;;;7.25;6.55;;;22.60;99.90;;;;;;4844912;29;20381;-71
2023/06/25 05:37:26;;;;;;;7.90;7.10;;;22.70;99.90;;;;;;4847488;29;21417;-70
2023/06/25 05:39:52;;;;;;;8.82;6.47;;;22.80;99.90;;;;;;4831268;29;23226;-70
2023/06/25 05:42:19;;;;;;;5.88;5.10;;;22.90;99.90;;;;;;4834218;29;20048;-70
2023/06/25 05:44:45;;;;;;;6.30;5.70;;;23.10;99.90;;;;;;4832533;29;20041;-71
2023/06/25 05:47:11;;;;;;;5.75;5.15;;;23.20;99.90;;;;;;4851977;29;20029;-69
2023/06/25 05:49:38;;;;;;;6.80;6.18;;;23.40;99.90;;;;;;4827980;29;20907;-69
2023/06/25 05:52:04;;;;;;;5.57;4.97;;;23.50;99.90;;;;;;4843379;29;20041;-69
2023/06/25 05:54:31;;;;;;;6.85;6.25;;;23.60;99.90;;;;;;4847526;29;20040;-69
2023/06/25 05:56:57;;;;;;;7.50;6.60;;;23.70;99.90;;;;;;4843264;29;20052;-69
2023/06/25 05:59:24;;;;;;;7.63;6.88;;;23.80;99.90;;;;;;4811033;29;20048;-69
2023/06/25 06:01:50;;;;;;;6.25;5.65;;;23.90;99.90;;;;;;4833889;29;20660;-70
2023/06/25 06:04:16;;;;;;;6.25;5.65;;;24.20;99.90;;;;;;4817280;29;20030;-69
2023/06/25 06:06:42;;;;;;;6.95;5.57;;;24.50;99.90;;;;;;4835758;29;20392;-69
2023/06/25 06:09:09;;;;;;;6.72;6.10;;;24.70;99.90;;;;;;4814854;29;20041;-69
2023/06/25 06:11:35;;;;;;;6.18;5.57;;;24.90;99.90;;;;;;4841474;29;20493;-68
2023/06/25 06:14:01;;;;;;;6.70;6.10;;;25.00;99.90;;;;;;4847849;29;20045;-69
2023/06/25 06:16:28;;;;;;;5.63;5.13;;;25.10;99.90;;;;;;4837978;29;20040;-69
2023/06/25 06:18:54;;;;;;;5.97;5.38;;;25.30;99.90;;;;;;4800319;29;20053;-69
2023/06/25 06:21:21;;;;;;;6.35;5.75;;;25.40;99.90;;;;;;4831183;29;20045;-69
2023/06/25 06:23:47;;;;;;;6.97;6.28;;;25.60;99.90;;;;;;4835287;29;20032;-69
2023/06/25 06:26:13;;;;;;;5.20;4.80;;;25.80;99.90;;;;;;4835918;29;20408;-69
2023/06/25 06:28:39;;;;;;;6.10;5.50;;;26.20;99.90;;;;;;4834745;29;20272;-70
2023/06/25 06:31:07;;;;;;;6.47;5.88;;;26.40;99.90;;;;;;4825387;29;20040;-69
2023/06/25 06:33:33;;;;;;;6.30;5.70;;;26.50;99.90;;;;;;4844098;29;20044;-68
2023/06/25 06:35:59;;;;;;;7.22;6.53;;;26.60;99.90;;;;;;4835306;29;20245;-69
2023/06/25 06:38:26;;;;;;;7.10;6.40;;;26.60;99.90;;;;;;4831191;29;20055;-68
2023/06/25 06:40:52;;;;;;;6.22;5.30;;;26.60;99.90;;;;;;4828416;29;20056;-69
2023/06/25 06:43:18;;;;;;;6.82;6.13;;;26.70;99.90;;;;;;4836476;29;20045;-69
2023/06/25 06:45:45;;;;;;;6.60;5.63;;;26.70;99.90;;;;;;4835914;29;20044;-69
2023/06/25 06:48:11;;;;;;;6.95;6.18;;;26.70;99.90;;;;;;4843704;29;20032;-68
2023/06/25 06:50:38;;;;;;;5.70;5.20;;;26.70;99.90;;;;;;4837831;29;20053;-69
2023/06/25 06:53:04;;;;;;;6.97;5.90;;;26.70;99.90;;;;;;4841933;29;20045;-69
2023/06/25 06:55:32;;;;;;;7.32;6.63;;;26.80;99.90;;;;;;4835446;29;20052;-69
2023/06/25 06:57:58;;;;;;;7.28;6.32;;;26.90;99.90;;;;;;4835541;29;20037;-69
2023/06/25 07:00:25;;;;;;;8.70;7.75;;;26.90;99.90;;;;;;4828599;29;20044;-69
2023/06/25 07:02:55;;;;;;;6.13;5.55;;;26.90;99.90;;;;;;4835864;29;20048;-69
2023/06/25 07:05:22;;;;;;;8.85;7.40;;;26.90;99.90;;;;;;4807879;29;20033;-69
2023/06/25 07:07:49;;;;;;;6.75;6.05;;;27.10;99.90;;;;;;4846516;29;20422;-69
2023/06/25 07:10:15;;;;;;;7.05;6.38;;;27.10;99.60;;;;;;4818590;29;20041;-69
2023/06/25 07:12:42;;;;;;;6.53;5.93;;;27.20;99.50;;;;;;4837156;29;20060;-69
2023/06/25 07:15:08;;;;;;;7.78;7.07;;;27.20;99.40;;;;;;4820117;29;20037;-69
2023/06/25 07:17:35;;;;;;;7.72;7.00;;;27.30;99.20;;;;;;4834412;29;20048;-69
2023/06/25 07:20:01;;;;;;;6.60;6.00;;;27.40;99.10;;;;;;4825312;29;20033;-69
2023/06/25 07:22:27;;;;;;;7.25;6.57;;;27.50;99.10;;;;;;4835044;29;20064;-69
2023/06/25 07:24:54;;;;;;;18.20;16.50;;;27.60;98.90;;;;;;4827366;29;20036;-69
2023/06/25 07:27:20;;;;;;;8.07;7.38;;;27.70;98.40;;;;;;4845861;29;20826;-70
2023/06/25 07:29:46;;;;;;;9.45;7.85;;;27.80;98.50;;;;;;4830538;29;20032;-69
2023/06/25 07:32:12;;;;;;;7.78;7.07;;;27.80;98.40;;;;;;4830282;29;20029;-68
2023/06/25 07:34:39;;;;;;;7.80;7.00;;;27.90;98.20;;;;;;4812623;29;20063;-68
2023/06/25 07:37:06;;;;;;;8.23;7.20;;;27.90;98.20;;;;;;4831552;29;20372;-69
2023/06/25 07:39:33;;;;;;;6.93;6.22;;;28.00;98.00;;;;;;4824156;29;20052;-68
2023/06/25 07:42:00;;;;;;;7.28;6.55;;;28.10;98.00;;;;;;4835601;29;20847;-69
2023/06/25 07:44:26;;;;;;;6.75;6.05;;;28.20;97.90;;;;;;4840576;29;20048;-69
2023/06/25 07:46:52;;;;;;;8.15;7.10;;;28.30;97.80;;;;;;4839719;29;20048;-69
2023/06/25 07:49:19;;;;;;;6.38;5.78;;;28.40;97.50;;;;;;4832015;29;20500;-69
2023/06/25 07:51:50;;;;;;;46.42;38.30;;;28.50;97.40;;;;;;4831330;29;20044;-68
2023/06/25 07:54:17;;;;;;;18.67;16.75;;;28.60;97.20;;;;;;4833579;29;20029;-68
2023/06/25 07:56:44;;;;;;;10.70;9.60;;;28.70;96.80;;;;;;4834676;29;20404;-68
2023/06/25 07:59:14;;;;;;;8.00;7.20;;;28.70;96.70;;;;;;4830861;29;20541;-68
2023/06/25 08:01:41;;;;;;;7.05;6.45;;;28.80;96.60;;;;;;4841797;29;20489;-68
2023/06/25 08:04:07;;;;;;;6.88;5.80;;;28.80;96.20;;;;;;4827804;29;20038;-69
2023/06/25 08:06:34;;;;;;;6.90;6.30;;;28.90;96.50;;;;;;4838051;29;20452;-68
2023/06/25 08:09:00;;;;;;;5.22;4.72;;;29.10;96.00;;;;;;4832717;29;20973;-68
2023/06/25 08:11:26;;;;;;;5.03;4.40;;;29.10;95.70;;;;;;4829391;29;20034;-69
2023/06/25 08:13:53;;;;;;;7.75;7.07;;;29.20;95.50;;;;;;4836527;29;20029;-69
2023/06/25 08:16:20;;;;;;;7.13;6.50;;;29.30;95.10;;;;;;4833680;29;20043;-68
2023/06/25 08:18:46;;;;;;;5.57;5.07;;;29.50;95.00;;;;;;4838359;29;20037;-68
2023/06/25 08:21:13;;;;;;;5.20;4.80;;;29.60;94.50;;;;;;4841765;29;20064;-69
2023/06/25 08:23:39;;;;;;;10.02;9.05;;;29.60;94.10;;;;;;4841938;29;20045;-68
2023/06/25 08:26:06;;;;;;;7.97;7.18;;;29.70;93.70;;;;;;4851131;29;20130;-68
2023/06/25 08:28:32;;;;;;;5.43;4.55;;;29.80;93.60;;;;;;4829943;29;20573;-68
2023/06/25 08:30:59;;;;;;;6.32;4.47;;;29.90;93.20;;;;;;4828522;29;20034;-68
2023/06/25 08:33:25;;;;;;;4.90;4.45;;;30.00;92.70;;;;;;4835507;29;20037;-68
2023/06/25 08:35:52;;;;;;;6.32;5.72;;;30.00;92.10;;;;;;4841443;29;20048;-68
2023/06/25 08:38:21;;;;;;;6.47;4.68;;;30.10;91.70;;;;;;4845180;29;20029;-68
2023/06/25 08:40:48;;;;;;;3.75;3.45;;;30.20;91.60;;;;;;4818926;29;20041;-68
2023/06/25 08:43:15;;;;;;;6.57;3.97;;;30.20;91.10;;;;;;4836465;29;20035;-68
2023/06/25 08:45:42;;;;;;;3.33;3.03;;;30.20;90.70;;;;;;4831748;29;20041;-67
2023/06/25 08:48:13;;;;;;;3.00;2.35;;;30.30;90.60;;;;;;4835804;29;20103;-68
2023/06/25 08:50:48;;;;;;;3.55;2.65;;;30.50;89.10;;;;;;4826342;29;20477;-69
2023/06/25 08:53:14;;;;;;;2.97;2.67;;;30.60;86.50;;;;;;4836143;29;20048;-68
2023/06/25 08:55:43;;;;;;;2.70;2.10;;;30.70;84.60;;;;;;4845561;29;21222;-68
2023/06/25 08:58:09;;;;;;;2.63;2.38;;;30.80;84.60;;;;;;4844364;29;20350;-68
2023/06/25 09:00:36;;;;;;;2.97;2.13;;;30.90;84.20;;;;;;4829254;29;20477;-68
2023/06/25 09:03:02;;;;;;;4.68;2.70;;;31.10;83.30;;;;;;4820393;29;20064;-68
2023/06/25 09:05:28;;;;;;;2.50;2.00;;;31.20;82.50;;;;;;4836919;29;20552;-68
2023/06/25 09:07:56;;;;;;;3.67;2.47;;;31.30;82.70;;;;;;4837610;29;20021;-68
2023/06/25 09:10:22;;;;;;;3.85;2.95;;;31.40;81.80;;;;;;4828440;29;20041;-68
2023/06/25 09:12:51;;;;;;;2.50;2.10;;;31.60;81.40;;;;;;4844865;29;20060;-68
2023/06/25 09:15:24;;;;;;;4.95;2.42;;;31.70;81.40;;;;;;4827653;29;20037;-68
2023/06/25 09:17:55;;;;;;;2.50;2.22;;;31.90;81.20;;;;;;4839819;29;20034;-67
2023/06/25 09:20:22;;;;;;;4.18;3.35;;;31.90;79.90;;;;;;4817838;29;20036;-68
2023/06/25 09:22:53;;;;;;;3.35;3.05;;;31.90;79.60;;;;;;4838255;29;20324;-68
2023/06/25 09:25:22;;;;;;;3.10;2.60;;;31.90;78.60;;;;;;4838634;29;20033;-67
2023/06/25 09:27:48;;;;;;;2.83;2.42;;;31.90;78.60;;;;;;4820177;29;20037;-67
2023/06/25 09:30:16;;;;;;;3.90;3.50;;;31.90;78.40;;;;;;4829997;29;20663;-67
2023/06/25 09:32:53;;;;;;;3.40;3.05;;;32.00;78.10;;;;;;4831774;29;20033;-68
2023/06/25 09:35:25;;;;;;;4.43;3.15;;;32.10;78.40;;;;;;4831617;29;20401;-68
2023/06/25 09:37:52;;;;;;;2.65;2.38;;;32.10;77.90;;;;;;4838278;29;20401;-69
2023/06/25 09:40:20;;;;;;;2.92;2.58;;;32.20;77.70;;;;;;4828509;29;20042;-68
2023/06/25 09:42:49;;;;;;;4.07;3.17;;;32.30;78.00;;;;;;4819765;29;20099;-68
2023/06/25 09:45:16;;;;;;;2.58;2.33;;;32.40;76.80;;;;;;4835738;29;20044;-68
2023/06/25 09:47:45;;;;;;;4.03;3.15;;;32.60;77.00;;;;;;4834457;29;20037;-68
2023/06/25 09:50:25;;;;;;;3.38;3.08;;;32.70;77.00;;;;;;4833484;29;20040;-68
2023/06/25 09:52:59;;;;;;;4.07;3.77;;;32.70;76.30;;;;;;4827465;29;20061;-69
2023/06/25 09:55:27;;;;;;;3.47;2.88;;;32.60;76.30;;;;;;4834323;29;20286;-68
2023/06/25 09:57:55;;;;;;;7.88;7.18;;;32.70;76.00;;;;;;4835877;29;20052;-70
2023/06/25 10:00:23;;;;;;;6.78;6.18;;;32.70;75.80;;;;;;4829203;29;20461;-68
2023/06/25 10:02:50;;;;;;;6.13;5.55;;;32.80;76.10;;;;;;4833653;29;20033;-69
2023/06/25 10:05:16;;;;;;;4.72;4.32;;;32.90;75.90;;;;;;4819157;29;20037;-68
2023/06/25 10:07:44;;;;;;;3.33;3.03;;;32.90;75.70;;;;;;4819583;29;20045;-68
2023/06/25 10:10:20;;;;;;;3.75;3.30;;;32.90;75.70;;;;;;4836027;29;20048;-67
2023/06/25 10:12:47;;;;;;;3.22;2.92;;;33.00;75.50;;;;;;4840749;29;20052;-68
2023/06/25 10:15:13;;;;;;;4.43;3.83;;;33.10;75.00;;;;;;4832324;29;20048;-68
2023/06/25 10:18:06;;;;;;;3.63;3.33;;;33.20;75.00;;;;;;4831923;29;20045;-69
2023/06/25 10:20:36;;;;;;;4.32;3.70;;;33.40;74.80;;;;;;4805300;29;20049;-68
2023/06/25 10:23:10;;;;;;;3.58;3.25;;;33.50;73.90;;;;;;4828953;29;20041;-67
2023/06/25 10:25:39;;;;;;;4.28;3.55;;;33.40;73.90;;;;;;4817307;29;20059;-68
2023/06/25 10:28:13;;;;;;;5.00;4.50;;;33.50;74.20;;;;;;4827527;29;20033;-69
2023/06/25 10:30:49;;;;;;;5.68;5.13;;;33.60;74.70;;;;;;4837282;29;20041;-69
2023/06/25 10:33:19;;;;;;;4.70;4.28;;;33.80;74.50;;;;;;4816301;29;20064;-68
2023/06/25 10:35:54;;;;;;;3.83;3.45;;;33.90;74.50;;;;;;4833150;29;20037;-67
2023/06/25 10:38:21;;;;;;;3.75;3.20;;;34.00;74.20;;;;;;4829390;29;20040;-68
2023/06/25 10:40:47;;;;;;;4.88;3.65;;;34.10;74.10;;;;;;4841358;29;20037;-68
2023/06/25 10:43:20;;;;;;;3.63;3.13;;;34.30;73.90;;;;;;4834627;29;20041;-68
2023/06/25 10:45:51;;;;;;;3.45;3.03;;;34.70;72.50;;;;;;4827011;29;20570;-69
2023/06/25 10:48:18;;;;;;;2.85;2.40;;;35.00;71.70;;;;;;4842401;29;20048;-67
2023/06/25 10:50:46;;;;;;;3.80;2.67;;;35.20;70.10;;;;;;4831440;29;20594;-67
2023/06/25 10:53:15;;;;;;;3.28;2.97;;;35.40;69.80;;;;;;4831125;29;20496;-68
2023/06/25 10:55:46;;;;;;;4.53;3.00;;;35.70;68.90;;;;;;4818250;29;20064;-67
2023/06/25 10:58:21;;;;;;;3.20;2.90;;;36.00;67.90;;;;;;4835858;29;20060;-69
2023/06/25 11:00:58;;;;;;;4.88;4.47;;;36.30;67.20;;;;;;4831533;29;20063;-70
2023/06/25 11:03:25;;;;;;;4.43;3.30;;;36.60;66.80;;;;;;4837005;29;21025;-72
2023/06/25 11:05:51;;;;;;;3.08;2.83;;;36.90;65.70;;;;;;4831306;29;20045;-69
2023/06/25 11:08:18;;;;;;;3.55;3.10;;;37.20;65.00;;;;;;4843675;29;20068;-68
2023/06/25 11:10:44;;;;;;;3.72;3.40;;;37.40;64.50;;;;;;4829637;29;20041;-68
2023/06/25 11:13:12;;;;;;;3.25;2.95;;;37.70;63.40;;;;;;4833802;29;20045;-68
2023/06/25 11:15:40;;;;;;;3.03;2.80;;;38.00;63.10;;;;;;4833716;29;20048;-68
2023/06/25 11:18:10;;;;;;;4.00;2.92;;;38.30;63.10;;;;;;4816964;29;20041;-69
2023/06/25 11:20:40;;;;;;;3.20;2.95;;;38.40;62.30;;;;;;4825174;29;20060;-68
2023/06/25 11:23:10;;;;;;;3.17;2.70;;;38.60;61.00;;;;;;4842496;29;20049;-68
2023/06/25 11:25:36;;;;;;;6.45;3.17;;;38.70;60.60;;;;;;4826937;29;20048;-68
2023/06/25 11:28:11;;;;;;;5.90;3.30;;;38.80;58.90;;;;;;4831958;29;20041;-69
2023/06/25 11:30:38;;;;;;;4.38;3.15;;;39.00;58.90;;;;;;4821494;29;20522;-69
2023/06/25 11:33:13;;;;;;;3.28;2.97;;;39.20;58.60;;;;;;4830417;29;20033;-68
2023/06/25 11:35:41;;;;;;;40.17;36.13;;;39.50;57.60;;;;;;4825990;29;20040;-69
2023/06/25 11:38:08;;;;;;;9.13;8.32;;;39.60;57.80;;;;;;4827776;29;20037;-68
2023/06/25 11:40:36;;;;;;;3.38;3.10;;;39.80;57.00;;;;;;4831823;29;20021;-68
2023/06/25 11:43:03;;;;;;;5.22;2.40;;;40.10;55.60;;;;;;4842713;29;20615;-69
2023/06/25 11:45:43;;;;;;;2.67;2.28;;;40.30;54.30;;;;;;4826182;29;20052;-68
2023/06/25 11:48:14;;;;;;;2.35;2.15;;;40.60;54.90;;;;;;4830174;29;20052;-69
2023/06/25 11:50:44;;;;;;;2.75;2.55;;;40.90;53.80;;;;;;4825774;29;20030;-68
2023/06/25 11:53:11;;;;;;;2.28;2.08;;;41.00;52.80;;;;;;4832431;29;20052;-68
2023/06/25 11:55:39;;;;;;;4.03;2.40;;;41.10;52.00;;;;;;4831942;29;20896;-69
2023/06/25 11:58:05;;;;;;;5.25;2.60;;;41.30;51.50;;;;;;4836603;29;20108;-71
2023/06/25 12:00:31;;;;;;;3.15;2.80;;;41.50;51.10;;;;;;4835190;29;20131;-72
2023/06/25 12:02:57;;;;;;;18.73;17.20;;;41.70;50.80;;;;;;4841485;29;20472;-73
2023/06/25 12:05:24;;;;;;;4.32;3.80;;;41.90;50.50;;;;;;4817387;29;20072;-71
2023/06/25 12:07:50;;;;;;;4.75;3.20;;;41.80;50.10;;;;;;4829963;29;20033;-69
2023/06/25 12:10:17;;;;;;;2.38;2.13;;;41.90;49.80;;;;;;4822025;29;20049;-69
2023/06/25 12:12:44;;;;;;;5.57;2.45;;;42.20;49.30;;;;;;4829572;29;20041;-69
2023/06/25 12:15:11;;;;;;;3.83;2.83;;;42.40;48.80;;;;;;4827147;29;20025;-72
2023/06/25 12:17:37;;;;;;;2.95;2.50;;;42.60;48.50;;;;;;4839385;29;20946;-72
2023/06/25 12:20:04;;;;;;;2.20;2.00;;;42.80;48.60;;;;;;4835426;29;20044;-72
2023/06/25 12:22:30;;;;;;;2.20;1.92;;;43.10;48.20;;;;;;4840167;29;20033;-73
2023/06/25 12:24:57;;;;;;;4.30;2.70;;;43.40;47.80;;;;;;4815060;29;20041;-68
2023/06/25 12:27:23;;;;;;;2.58;2.35;;;43.60;46.80;;;;;;4819385;29;20069;-70
2023/06/25 12:29:49;;;;;;;3.30;3.00;;;43.90;46.70;;;;;;4825776;29;20041;-71
2023/06/25 12:32:15;;;;;;;9.27;8.65;;;44.10;46.20;;;;;;4833285;29;20044;-72
2023/06/25 12:34:43;;;;;;;5.00;4.60;;;44.30;45.70;;;;;;4833584;29;20037;-72
2023/06/25 12:37:09;;;;;;;6.70;5.28;;;44.40;44.60;;;;;;4831929;29;20073;-70
2023/06/25 12:39:36;;;;;;;3.17;2.65;;;44.40;44.80;;;;;;4820852;29;20037;-69
2023/06/25 12:42:02;;;;;;;2.67;2.28;;;44.50;44.70;;;;;;4842445;29;20405;-69
2023/06/25 12:44:28;;;;;;;4.30;2.40;;;44.50;44.70;;;;;;4839355;29;20453;-69
2023/06/25 12:46:55;;;;;;;2.47;2.10;;;44.70;44.50;;;;;;4836376;29;20033;-69